Share

Hunnewell, MO

4:54 PM CDT on April 24, 2014 (GMT -0500)
Marion Co RII Fire Station (KMOPHILA4) Elev 705 ft | 39.84 °N, 91.73 °W | Change Station

Current weather conditions updated 38 seconds ago

Overcast
Overcast
59.9 °F
Feels Like 59.9 °F
N
5.0
Wind Variable Wind from NNE
Gusts 11.0 mph
Sunrise 6:17 AM
Sunset 7:54 PM
Moon Waning Crescent

Tomorrow is forecast to be Much Warmer than today.

Pressure 29.58 in
Visibility 10.0 miles
Clouds Overcast 7000 ft
Dew Point 54 °F
Humidity 81%
Rainfall 0.00 in
Snow Depth Not available.
UV 1 out of 16
Pollen 4.90 out of 12
Air Quality Not available.
Flu Activity Sporadic
METAR KHAE 242135Z AUTO 05003KT 10SM -RA OVC070 20/08 A2958 RMK AO2

More Conditions Fewer Conditions

Pressure 29.58 in
Visibility 10.0 miles
Clouds Overcast 7000 ft
Dew Point 54 °F
Humidity 81%
Rainfall 0.00 in
Snow Depth Not available.
UV 1 out of 16
Pollen 4.90 out of 12
Air Quality Not available.
Flu Activity Sporadic
METAR KHAE 242135Z AUTO 05003KT 10SM -RA OVC070 20/08 A2958 RMK AO2

More Conditions Fewer Conditions

10-Day Weather Forecast

Almanac

Astronomy

Apr. 24, 2014 Rise Set
Actual Time 6:17 AM CDT 7:54 PM CDT
Civil Twilight 5:48 AM CDT 8:23 PM CDT
Nautical Twilight 5:14 AM CDT 8:57 PM CDT
Astronomical Twilight 4:37 AM CDT 9:34 PM CDT
Moon 3:27 AM CDT 3:11 PM CDT
Length of Visible Light 14h 34m
Length of Day
13h 37m
Tomorrow will be 2m 21s longer.
Waning Crescent, 22% of the Moon is Illuminated
Today
Waning Crescent
Apr 29
New
May 6
First Quarter
May 14
Full
May 21
Last Quarter

Today's Extremes

State Highs State Lows

Community

  • Jone Runs Falls
    Jone Runs Falls
  • Sunset at Apalachicola Bay, Florida
    Sunset at Apalachicola Bay, Florida
  • Clouds mov'n in
    Clouds mov'n in
  • Stacked
    Stacked
  • clouds approaching Red Sox Nation
    clouds approaching Red Sox Nation

WunderPhotos

Upload Photos

1,704,721 photos uploaded!

Nearby

Snow Depth

Station Depth Elevation
No new snow has been reported.

Coastal Water Temperatures

Place Temperature
No Stations Reporting

Earthquake Activity

City Distance Mag. Time & Date
No recent earthquake activity has been reported nearby.
Minimum magnitude displayed is 2.5.

Nearby Weather Stations

Station Location Temp. Dew Point Humidity Wind Precip. Elev Updated Type
Marion Co RII Fire Station, Philadelphia, MO 59.9 °F 54 °F 81% NNE  at  5.0 mph 0.00 in / hr 705 ft 4:54 PM CDT Normal
North Eastern Ralls County WB2UFO, New London, MO 68.5 °F 55 °F 62% WNW  at  2.0 mph 0.00 in / hr 700 ft 4:53 PM CDT Normal

Show More Stations Show Fewer Stations

What do you think?

We're not finished. Please let us know what you like, what you don't like, and what you are still missing.